Ridgeland, Wisconsin
Current Conditions -  °F | °C
As of 8:55 AM on Sunday 21 Dec 2014 (Local Time) from KY23 Reporting Station
Haze Haze  
Wind Chill: 22°   Ceiling: 400
Heat Index: 30°   Visibility: 1.7mi
Dew Point: 29°   Wind: 9mph
Humidity: 96%   Direction: 130°SE
Pressure: 29.95"   Gusts: NA
Location:  45.2°N, 91.9°W
Report Text: KY23 211455Z AUTO 13008KT 1 3/4SM BR OVC004 M01/M01 A2995 RMK AO2 T10091014
Loading
Personal Weather Stations






























Interactive Weather Map New forecast layout! Learn more

10-Day Weather Forecast

Advertisements
Track Severe Weather on mobile